Time;durP1;ratioP1;P1;durP2;ratioP2;P2;SDS_P1;SDS_P2;PMS_P1;PMS_P2;Temp;Humidity;BMP_temperature;BMP_pressure;BME280_temperature;BME280_humidity;BME280_pressure;Samples;Min_cycle;Max_cycle;Signal;HPM_P1;HPM_P2
2023/07/13 00:00:08;;;;;;;5.75;2.28;;;14.30;99.90;;;;;;5048599;28;20097;-76
2023/07/13 00:02:34;;;;;;;8.23;2.60;;;14.20;99.90;;;;;;5050242;28;20477;-74
2023/07/13 00:05:00;;;;;;;7.40;2.25;;;14.20;99.90;;;;;;5049664;28;20029;-74
2023/07/13 00:07:25;;;;;;;5.97;2.67;;;14.20;99.90;;;;;;5048239;28;20021;-74
2023/07/13 00:09:52;;;;;;;12.15;2.40;;;14.30;99.90;;;;;;5050124;28;20090;-74
2023/07/13 00:12:30;;;;;;;5.40;2.30;;;14.20;99.90;;;;;;5049281;28;20566;-74
2023/07/13 00:15:01;;;;;;;5.75;2.08;;;14.20;99.90;;;;;;5049921;28;20040;-74
2023/07/13 00:17:28;;;;;;;9.68;2.60;;;14.30;99.90;;;;;;5049751;28;20048;-73
2023/07/13 00:19:56;;;;;;;6.97;2.17;;;14.20;99.90;;;;;;5050121;28;20025;-75
2023/07/13 00:22:23;;;;;;;5.72;2.15;;;14.20;99.90;;;;;;5050149;28;20510;-76
2023/07/13 00:24:51;;;;;;;7.50;2.05;;;14.20;99.90;;;;;;5050257;28;20029;-75
2023/07/13 00:27:17;;;;;;;4.32;2.50;;;14.20;99.90;;;;;;5049957;28;20033;-75
2023/07/13 00:29:43;;;;;;;4.35;2.10;;;14.10;99.90;;;;;;5050081;28;20049;-76
2023/07/13 00:32:11;;;;;;;9.93;2.67;;;14.20;99.90;;;;;;5049561;28;20352;-75
2023/07/13 00:34:37;;;;;;;8.85;2.80;;;14.20;99.90;;;;;;5050096;28;20021;-76
2023/07/13 00:37:06;;;;;;;11.27;3.10;;;14.10;99.90;;;;;;5050023;28;20134;-76
2023/07/13 00:39:35;;;;;;;4.53;2.10;;;14.10;99.90;;;;;;5049904;28;20336;-76
2023/07/13 00:42:02;;;;;;;8.40;2.40;;;14.10;99.90;;;;;;5048741;28;20379;-76
2023/07/13 00:44:29;;;;;;;5.90;2.55;;;14.10;99.90;;;;;;5050184;28;20017;-76
2023/07/13 00:46:55;;;;;;;6.57;2.40;;;14.10;99.90;;;;;;5049999;28;20048;-76
2023/07/13 00:49:24;;;;;;;9.43;3.08;;;14.10;99.90;;;;;;5049387;28;20116;-76
2023/07/13 00:52:03;;;;;;;7.57;2.20;;;14.10;99.90;;;;;;5048045;28;20029;-76
2023/07/13 00:54:36;;;;;;;8.45;2.83;;;14.10;99.90;;;;;;5049497;28;20029;-76
2023/07/13 00:57:04;;;;;;;;;;;14.10;99.90;;;;;;5050680;28;20036;-76
2023/07/13 00:59:30;;;;;;;8.25;2.72;;;14.20;99.90;;;;;;5049149;28;20358;-76
2023/07/13 01:01:56;;;;;;;7.07;2.17;;;14.20;99.90;;;;;;5050130;28;20132;-75
2023/07/13 01:04:24;;;;;;;6.53;2.47;;;14.20;99.90;;;;;;5049014;28;20174;-76
2023/07/13 01:06:50;;;;;;;6.30;1.92;;;14.30;99.90;;;;;;5049767;28;20187;-76
2023/07/13 01:09:16;;;;;;;10.48;2.58;;;14.30;99.90;;;;;;5049469;28;20561;-76
2023/07/13 01:11:42;;;;;;;5.07;2.30;;;14.30;99.90;;;;;;5049564;28;20066;-75
2023/07/13 01:14:09;;;;;;;5.55;2.50;;;14.20;99.90;;;;;;5049256;28;20090;-76
2023/07/13 01:16:36;;;;;;;7.25;2.33;;;14.20;99.90;;;;;;5049755;28;20029;-75
2023/07/13 01:19:09;;;;;;;10.77;2.88;;;14.10;99.90;;;;;;5049439;28;20036;-76
2023/07/13 01:21:35;;;;;;;7.68;2.35;;;14.10;99.90;;;;;;5049860;28;20437;-75
2023/07/13 01:24:02;;;;;;;8.07;2.42;;;14.10;99.90;;;;;;5049709;28;20032;-76
2023/07/13 01:26:28;;;;;;;7.95;2.30;;;14.10;99.90;;;;;;5048944;28;20572;-76
2023/07/13 01:28:56;;;;;;;10.43;3.10;;;14.10;99.90;;;;;;5049328;28;20451;-76
2023/07/13 01:31:22;;;;;;;10.98;3.15;;;14.10;99.90;;;;;;5049011;28;20417;-75
2023/07/13 01:33:47;;;;;;;10.00;2.30;;;14.10;99.90;;;;;;5049475;28;20078;-75
2023/07/13 01:36:13;;;;;;;8.15;2.83;;;14.20;99.90;;;;;;5051207;28;20052;-75
2023/07/13 01:38:39;;;;;;;11.40;2.90;;;14.20;99.90;;;;;;5053204;28;20123;-75
2023/07/13 01:41:05;;;;;;;8.40;2.53;;;14.10;99.90;;;;;;5052736;28;20108;-75
2023/07/13 01:43:32;;;;;;;5.90;2.33;;;14.10;99.90;;;;;;5052364;28;20029;-75
2023/07/13 01:45:58;;;;;;;7.93;2.35;;;14.10;99.90;;;;;;5052821;28;20466;-75
2023/07/13 01:48:23;;;;;;;8.70;2.85;;;14.10;99.90;;;;;;5052448;28;20052;-75
2023/07/13 01:50:49;;;;;;;9.65;2.35;;;14.00;99.90;;;;;;5052970;28;20052;-76
2023/07/13 01:53:15;;;;;;;7.85;2.60;;;14.00;99.90;;;;;;5052344;28;20471;-76
2023/07/13 01:55:42;;;;;;;10.65;2.60;;;14.00;99.90;;;;;;5052982;28;20550;-75
2023/07/13 01:58:08;;;;;;;11.52;3.10;;;14.00;99.90;;;;;;5053422;28;20025;-75
2023/07/13 02:00:34;;;;;;;7.80;2.50;;;14.00;99.90;;;;;;5052674;28;20025;-75
2023/07/13 02:02:59;;;;;;;4.57;2.20;;;13.90;99.90;;;;;;5052960;28;20029;-75
2023/07/13 02:05:25;;;;;;;10.10;2.60;;;14.00;99.90;;;;;;5052096;28;20423;-75
2023/07/13 02:07:52;;;;;;;8.23;2.38;;;13.90;99.90;;;;;;5052853;28;20087;-75
2023/07/13 02:10:18;;;;;;;7.45;2.55;;;13.90;99.90;;;;;;5052266;28;20022;-75
2023/07/13 02:12:44;;;;;;;6.60;2.50;;;13.90;99.90;;;;;;5052365;28;20033;-74
2023/07/13 02:15:10;;;;;;;7.97;2.78;;;13.90;99.90;;;;;;5052533;28;20044;-75
2023/07/13 02:17:36;;;;;;;5.63;2.72;;;13.80;99.90;;;;;;5052832;28;20429;-75
2023/07/13 02:20:04;;;;;;;7.75;2.53;;;13.80;99.90;;;;;;5052682;28;20099;-75
2023/07/13 02:22:30;;;;;;;5.50;2.70;;;13.80;99.90;;;;;;5051919;28;20040;-74
2023/07/13 02:24:56;;;;;;;6.72;2.67;;;13.80;99.90;;;;;;5052249;28;20044;-75
2023/07/13 02:27:22;;;;;;;5.93;2.60;;;13.90;99.90;;;;;;5051709;28;20419;-75
2023/07/13 02:29:47;;;;;;;8.95;2.40;;;13.80;99.90;;;;;;5052439;28;20037;-73
2023/07/13 02:32:13;;;;;;;8.32;2.90;;;13.90;99.90;;;;;;5051722;28;20036;-75
2023/07/13 02:34:40;;;;;;;7.15;2.67;;;13.90;99.90;;;;;;5052357;28;20435;-75
2023/07/13 02:37:06;;;;;;;9.23;2.42;;;13.90;99.90;;;;;;5052538;28;20170;-74
2023/07/13 02:39:32;;;;;;;7.07;2.72;;;13.90;99.90;;;;;;5051636;28;20749;-75
2023/07/13 02:42:00;;;;;;;11.10;2.40;;;13.90;99.90;;;;;;5052131;28;20108;-75
2023/07/13 02:44:26;;;;;;;5.22;2.50;;;13.90;99.90;;;;;;5051514;28;20029;-74
2023/07/13 02:46:51;;;;;;;10.38;2.72;;;13.90;99.90;;;;;;5050910;28;20037;-75
2023/07/13 02:49:17;;;;;;;6.38;2.70;;;13.90;99.90;;;;;;5050053;28;20041;-75
2023/07/13 02:51:43;;;;;;;8.07;2.42;;;13.90;99.90;;;;;;5051924;28;20470;-75
2023/07/13 02:54:10;;;;;;;8.30;2.50;;;13.90;99.90;;;;;;5051816;28;20037;-75
2023/07/13 02:56:35;;;;;;;6.53;2.60;;;13.90;99.90;;;;;;5051495;28;20027;-76
2023/07/13 02:59:02;;;;;;;7.95;2.60;;;13.90;99.90;;;;;;5050572;28;20036;-75
2023/07/13 03:01:28;;;;;;;11.85;2.90;;;13.90;99.90;;;;;;5051233;28;20033;-75
2023/07/13 03:03:53;;;;;;;9.40;2.65;;;13.80;99.90;;;;;;5051705;28;20082;-75
2023/07/13 03:06:21;;;;;;;5.88;1.85;;;13.80;99.90;;;;;;5051257;28;20032;-75
2023/07/13 03:08:48;;;;;;;6.68;2.50;;;13.80;99.90;;;;;;5050336;28;20095;-74
2023/07/13 03:11:18;;;;;;;6.28;2.50;;;13.90;99.90;;;;;;5051422;28;20033;-76
2023/07/13 03:13:44;;;;;;;6.05;2.75;;;13.90;99.90;;;;;;5051532;28;20032;-75
2023/07/13 03:16:11;;;;;;;7.45;2.22;;;13.80;99.90;;;;;;5051630;28;20044;-75
2023/07/13 03:18:37;;;;;;;4.82;1.98;;;13.80;99.90;;;;;;5050827;28;20367;-75
2023/07/13 03:21:04;;;;;;;5.55;2.22;;;13.80;99.90;;;;;;5051493;28;20021;-74
2023/07/13 03:23:30;;;;;;;5.93;2.38;;;13.90;99.90;;;;;;5050784;28;20029;-75
2023/07/13 03:26:02;;;;;;;7.72;2.50;;;13.90;99.90;;;;;;5051248;28;20064;-75
2023/07/13 03:28:28;;;;;;;9.33;2.83;;;13.80;99.90;;;;;;5050622;28;20083;-74
2023/07/13 03:31:05;;;;;;;7.45;2.33;;;13.90;99.90;;;;;;5051417;28;20250;-74
2023/07/13 03:33:31;;;;;;;7.00;2.30;;;13.90;99.90;;;;;;5049381;28;20542;-74
2023/07/13 03:35:57;;;;;;;9.00;2.33;;;13.80;99.90;;;;;;5049846;28;20111;-74
2023/07/13 03:38:23;;;;;;;5.70;2.00;;;13.80;99.90;;;;;;5050657;28;20382;-75
2023/07/13 03:40:49;;;;;;;5.70;1.92;;;13.80;99.90;;;;;;5051350;28;20025;-75
2023/07/13 03:43:15;;;;;;;8.63;2.35;;;13.80;99.90;;;;;;5051060;28;20033;-75
2023/07/13 03:45:40;;;;;;;6.82;2.30;;;13.70;99.90;;;;;;5050863;28;20017;-75
2023/07/13 03:48:06;;;;;;;8.82;2.67;;;13.70;99.90;;;;;;5051246;28;20367;-74
2023/07/13 03:50:32;;;;;;;9.15;3.20;;;13.60;99.90;;;;;;5050254;28;20029;-75
2023/07/13 03:52:59;;;;;;;7.13;2.50;;;13.50;99.90;;;;;;5049042;28;20039;-75
2023/07/13 03:55:26;;;;;;;6.30;2.80;;;13.50;99.90;;;;;;5050032;28;20147;-74
2023/07/13 03:58:18;;;;;;;10.95;3.25;;;13.50;99.90;;;;;;5050655;28;20459;-76
2023/07/13 04:00:44;;;;;;;9.30;3.30;;;13.60;99.90;;;;;;5050443;28;20103;-75
2023/07/13 04:03:09;;;;;;;6.65;2.60;;;13.50;99.90;;;;;;5050413;28;20115;-75
2023/07/13 04:05:36;;;;;;;7.18;2.70;;;13.60;99.90;;;;;;5049970;28;20323;-75
2023/07/13 04:08:01;;;;;;;8.18;2.45;;;13.60;99.90;;;;;;5050422;28;20068;-75
2023/07/13 04:10:27;;;;;;;10.15;2.70;;;13.60;99.90;;;;;;5048529;28;20033;-75
2023/07/13 04:12:53;;;;;;;8.70;2.42;;;13.70;99.90;;;;;;5050521;28;20323;-75
2023/07/13 04:15:19;;;;;;;7.45;2.45;;;13.70;99.90;;;;;;5049959;28;20028;-76
2023/07/13 04:17:45;;;;;;;7.63;2.53;;;13.70;99.90;;;;;;5050008;28;20025;-76
2023/07/13 04:20:10;;;;;;;6.30;2.15;;;13.70;99.90;;;;;;5050418;28;20075;-75
2023/07/13 04:22:36;;;;;;;7.68;2.45;;;13.70;99.90;;;;;;5049841;28;20111;-75
2023/07/13 04:25:02;;;;;;;6.63;2.63;;;13.70;99.90;;;;;;5050046;28;20544;-76
2023/07/13 04:27:28;;;;;;;9.45;2.65;;;13.60;99.90;;;;;;5049694;28;20029;-75
2023/07/13 04:29:54;;;;;;;7.82;2.55;;;13.70;99.90;;;;;;5050024;28;20057;-75
2023/07/13 04:32:20;;;;;;;7.55;2.38;;;13.70;99.90;;;;;;5050245;28;20139;-76
2023/07/13 04:34:45;;;;;;;10.45;2.72;;;13.70;99.90;;;;;;5050274;28;20021;-74
2023/07/13 04:37:11;;;;;;;9.73;3.00;;;13.70;99.90;;;;;;5050399;28;20037;-75
2023/07/13 04:39:37;;;;;;;6.28;2.28;;;13.70;99.90;;;;;;5049787;28;20117;-75
2023/07/13 04:42:03;;;;;;;8.00;2.92;;;13.70;99.90;;;;;;5050476;28;20034;-75
2023/07/13 04:44:29;;;;;;;4.90;2.42;;;13.70;99.90;;;;;;5049671;28;20086;-76
2023/07/13 04:46:55;;;;;;;3.83;2.17;;;13.70;99.90;;;;;;5050256;28;20108;-75
2023/07/13 04:49:20;;;;;;;7.90;2.40;;;13.70;99.90;;;;;;5049864;28;20027;-77
2023/07/13 04:51:46;;;;;;;9.73;2.85;;;13.70;99.90;;;;;;5048932;28;20464;-75
2023/07/13 04:54:12;;;;;;;8.90;2.95;;;13.80;99.90;;;;;;5050135;28;20040;-75
2023/07/13 04:56:37;;;;;;;10.27;2.70;;;13.80;99.90;;;;;;5049962;28;20067;-75
2023/07/13 04:59:03;;;;;;;7.10;2.90;;;13.80;99.90;;;;;;5048539;28;20416;-75
2023/07/13 05:01:29;;;;;;;9.93;3.03;;;13.80;99.90;;;;;;5049757;28;20425;-75
2023/07/13 05:03:57;;;;;;;7.00;2.47;;;13.70;99.90;;;;;;5049955;28;20029;-75
2023/07/13 05:06:23;;;;;;;8.13;3.05;;;13.90;99.90;;;;;;5048482;28;20024;-76
2023/07/13 05:08:48;;;;;;;9.57;2.92;;;13.90;99.90;;;;;;5050130;28;20033;-75
2023/07/13 05:11:14;;;;;;;7.75;2.47;;;13.90;99.90;;;;;;5052287;28;20369;-75
2023/07/13 05:13:40;;;;;;;9.27;3.58;;;14.00;99.90;;;;;;5052641;28;20033;-75
2023/07/13 05:16:07;;;;;;;6.40;2.55;;;14.00;99.90;;;;;;5053327;28;20055;-75
2023/07/13 05:18:33;;;;;;;9.38;2.80;;;14.10;99.90;;;;;;5052906;28;20043;-76
2023/07/13 05:21:08;;;;;;;8.75;2.53;;;14.30;99.90;;;;;;5053193;28;20100;-75
2023/07/13 05:23:35;;;;;;;7.60;2.70;;;14.50;99.90;;;;;;5052848;28;20037;-74
2023/07/13 05:26:02;;;;;;;10.32;2.58;;;14.70;99.90;;;;;;5053028;28;20359;-75
2023/07/13 05:28:31;;;;;;;11.93;2.63;;;14.80;99.90;;;;;;5052610;28;20025;-74
2023/07/13 05:30:57;;;;;;;9.48;2.30;;;15.00;99.90;;;;;;5053231;28;20029;-75
2023/07/13 05:33:23;;;;;;;10.25;2.42;;;15.30;99.90;;;;;;5052762;28;20037;-75
2023/07/13 05:35:49;;;;;;;6.95;2.22;;;15.40;99.90;;;;;;5052662;28;20505;-75
2023/07/13 05:38:14;;;;;;;10.63;2.40;;;15.60;99.90;;;;;;5051693;28;20025;-75
2023/07/13 05:40:46;;;;;;;11.38;2.55;;;15.50;99.90;;;;;;5052748;28;20033;-75
2023/07/13 05:43:13;;;;;;;10.60;2.83;;;15.50;99.90;;;;;;5053554;28;20182;-75
2023/07/13 05:45:39;;;;;;;9.23;2.53;;;15.30;99.90;;;;;;5052288;28;20033;-74
2023/07/13 05:48:04;;;;;;;6.70;2.55;;;15.30;99.90;;;;;;5052934;28;20055;-73
2023/07/13 05:50:31;;;;;;;8.05;2.40;;;15.30;99.90;;;;;;5051012;28;20482;-75
2023/07/13 05:52:57;;;;;;;5.75;2.00;;;15.30;99.90;;;;;;5051269;28;20033;-75
2023/07/13 05:55:23;;;;;;;9.95;2.45;;;15.30;99.90;;;;;;5052694;28;20032;-75
2023/07/13 05:57:48;;;;;;;8.70;2.40;;;15.30;99.90;;;;;;5052706;28;20061;-75
2023/07/13 06:00:15;;;;;;;6.50;2.00;;;15.40;99.90;;;;;;5052661;28;20104;-75
2023/07/13 06:02:41;;;;;;;13.38;2.85;;;15.40;99.90;;;;;;5051993;28;20090;-76
2023/07/13 06:05:07;;;;;;;7.63;2.42;;;15.40;99.90;;;;;;5052647;28;20051;-73
2023/07/13 06:07:33;;;;;;;8.48;2.75;;;15.50;99.90;;;;;;5052291;28;20037;-75
2023/07/13 06:09:59;;;;;;;13.23;3.10;;;15.50;99.90;;;;;;5052305;28;20029;-75
2023/07/13 06:12:25;;;;;;;7.07;2.60;;;15.50;99.90;;;;;;5051995;28;20037;-76
2023/07/13 06:14:51;;;;;;;7.95;2.67;;;15.60;99.90;;;;;;5052221;28;20037;-75
2023/07/13 06:17:17;;;;;;;9.05;2.67;;;15.50;99.90;;;;;;5052476;28;20043;-75
2023/07/13 06:19:44;;;;;;;9.25;2.50;;;15.50;99.90;;;;;;5051867;28;20087;-75
2023/07/13 06:22:09;;;;;;;8.35;2.45;;;15.60;99.90;;;;;;5052247;28;20043;-75
2023/07/13 06:24:35;;;;;;;8.82;2.67;;;15.60;99.90;;;;;;5051577;28;20358;-75
2023/07/13 06:27:01;;;;;;;9.75;2.65;;;15.70;99.90;;;;;;5052705;28;20029;-75
2023/07/13 06:29:27;;;;;;;8.23;2.42;;;15.80;99.90;;;;;;5051587;28;20144;-76
2023/07/13 06:31:52;;;;;;;7.32;2.28;;;15.80;99.90;;;;;;5051953;28;20104;-74
2023/07/13 06:34:18;;;;;;;8.95;2.03;;;15.70;99.90;;;;;;5052126;28;20463;-74
2023/07/13 06:36:44;;;;;;;9.40;3.05;;;15.70;99.90;;;;;;5051354;28;20099;-74
2023/07/13 06:39:10;;;;;;;8.48;2.38;;;15.70;99.90;;;;;;5050905;28;20028;-74
2023/07/13 06:41:36;;;;;;;5.25;1.92;;;15.70;99.90;;;;;;5051568;28;20028;-74
2023/07/13 06:44:01;;;;;;;9.95;2.42;;;15.80;99.90;;;;;;5051827;28;20436;-74
2023/07/13 06:46:29;;;;;;;9.10;2.13;;;15.90;99.90;;;;;;5051946;28;20094;-76
2023/07/13 06:48:55;;;;;;;8.15;2.33;;;16.00;99.90;;;;;;5052409;28;20036;-75
2023/07/13 06:51:21;;;;;;;5.40;2.58;;;16.10;99.90;;;;;;5051704;28;20060;-74
2023/07/13 06:53:47;;;;;;;5.78;2.25;;;16.30;99.90;;;;;;5051286;28;20056;-74
2023/07/13 06:56:13;;;;;;;5.82;2.00;;;16.40;99.90;;;;;;5051468;28;20029;-75
2023/07/13 06:58:38;;;;;;;12.00;2.25;;;16.60;99.90;;;;;;5051193;28;20028;-75
2023/07/13 07:01:05;;;;;;;6.68;2.10;;;16.60;99.90;;;;;;5051679;28;20403;-74
2023/07/13 07:03:31;;;;;;;8.05;2.03;;;16.70;99.90;;;;;;5051116;28;20083;-76
2023/07/13 07:06:14;;;;;;;4.10;1.77;;;16.70;99.90;;;;;;5051529;28;20454;-74
2023/07/13 07:08:40;;;;;;;5.38;2.50;;;16.80;99.90;;;;;;5050782;28;20025;-75
2023/07/13 07:11:09;;;;;;;6.65;2.40;;;16.90;99.90;;;;;;5049740;28;20120;-74
2023/07/13 07:13:35;;;;;;;6.97;2.28;;;16.90;99.90;;;;;;5050813;28;20033;-75
2023/07/13 07:16:01;;;;;;;8.00;2.10;;;16.80;99.90;;;;;;5051209;28;20146;-75
2023/07/13 07:18:26;;;;;;;6.55;2.17;;;16.70;99.90;;;;;;5051043;28;20439;-75
2023/07/13 07:20:52;;;;;;;8.52;2.15;;;16.70;99.90;;;;;;5049171;28;20107;-75
2023/07/13 07:23:18;;;;;;;7.95;2.45;;;16.80;99.90;;;;;;5051420;28;20029;-74
2023/07/13 07:25:44;;;;;;;6.18;2.38;;;16.90;99.90;;;;;;5050167;28;20029;-74
2023/07/13 07:28:12;;;;;;;6.95;2.03;;;17.00;99.90;;;;;;5050747;28;20543;-74
2023/07/13 07:30:43;;;;;;;9.18;2.47;;;17.00;99.90;;;;;;5048341;28;20060;-74
2023/07/13 07:33:09;;;;;;;8.30;2.28;;;17.00;99.90;;;;;;5050472;28;20037;-74
2023/07/13 07:35:34;;;;;;;7.78;1.95;;;17.10;99.90;;;;;;5050082;28;20032;-75
2023/07/13 07:38:00;;;;;;;6.35;2.17;;;17.00;99.90;;;;;;5051203;28;20028;-75
2023/07/13 07:40:26;;;;;;;5.40;1.88;;;17.00;99.90;;;;;;5051178;28;20253;-76
2023/07/13 07:42:52;;;;;;;5.43;1.80;;;17.00;99.90;;;;;;5050295;28;20546;-76
2023/07/13 07:45:19;;;;;;;4.07;2.13;;;17.00;99.90;;;;;;5051195;28;20021;-75
2023/07/13 07:47:45;;;;;;;2.85;1.80;;;16.90;99.90;;;;;;5050175;28;20029;-76
2023/07/13 07:50:10;;;;;;;8.48;1.77;;;16.80;99.90;;;;;;5050449;28;20022;-76
2023/07/13 07:52:36;;;;;;;4.93;1.83;;;16.80;99.90;;;;;;5049719;28;20071;-76
2023/07/13 07:55:03;;;;;;;5.68;1.67;;;16.80;99.90;;;;;;5051325;28;20021;-76
2023/07/13 07:57:29;;;;;;;2.92;2.17;;;16.80;99.90;;;;;;5050671;28;20112;-75
2023/07/13 07:59:55;;;;;;;3.28;1.60;;;16.70;99.90;;;;;;5048530;28;20128;-76
2023/07/13 08:02:20;;;;;;;3.17;1.60;;;16.80;99.90;;;;;;5050010;28;20025;-76
2023/07/13 08:04:46;;;;;;;3.25;1.48;;;17.00;99.90;;;;;;5050027;28;20166;-76
2023/07/13 08:07:12;;;;;;;2.97;1.60;;;17.00;99.90;;;;;;5050845;28;20056;-76
2023/07/13 08:09:37;;;;;;;4.30;1.75;;;17.20;99.90;;;;;;5050368;28;20509;-77
2023/07/13 08:12:03;;;;;;;4.97;1.80;;;17.30;99.90;;;;;;5050794;28;20116;-76
2023/07/13 08:14:29;;;;;;;6.25;2.10;;;17.40;99.90;;;;;;5050728;28;20037;-76
2023/07/13 08:16:55;;;;;;;4.28;1.80;;;17.10;99.90;;;;;;5049524;28;20047;-76
2023/07/13 08:19:20;;;;;;;3.22;1.65;;;17.10;99.90;;;;;;5050230;28;20433;-76
2023/07/13 08:21:48;;;;;;;4.32;2.00;;;17.10;99.90;;;;;;5049349;28;20029;-76
2023/07/13 08:24:14;;;;;;;5.47;1.80;;;17.20;99.90;;;;;;5048557;28;20029;-76
2023/07/13 08:26:39;;;;;;;4.13;2.00;;;17.40;99.90;;;;;;5049093;28;20477;-76
2023/07/13 08:29:05;;;;;;;5.32;2.17;;;17.60;99.90;;;;;;5049653;28;20060;-76
2023/07/13 08:31:31;;;;;;;4.13;1.60;;;17.70;99.90;;;;;;5049697;28;20563;-76
2023/07/13 08:33:57;;;;;;;2.85;1.50;;;17.80;99.90;;;;;;5047700;28;20033;-76
2023/07/13 08:36:22;;;;;;;2.60;2.10;;;17.90;99.90;;;;;;5049767;28;20068;-76
2023/07/13 08:38:48;;;;;;;3.45;1.70;;;17.80;99.90;;;;;;5049196;28;20119;-76
2023/07/13 08:41:18;;;;;;;3.50;1.65;;;17.80;99.90;;;;;;5048271;28;20021;-77
2023/07/13 08:43:51;;;;;;;4.88;1.60;;;17.70;99.90;;;;;;5048962;28;20139;-76
2023/07/13 08:46:20;;;;;;;;;;;17.70;99.90;;;;;;5052449;28;20492;-76
2023/07/13 08:49:01;;;;;;;4.18;1.50;;;17.70;99.90;;;;;;5052944;28;19905;-76
2023/07/13 08:51:46;;;;;;;6.68;1.63;;;17.60;99.90;;;;;;5053758;28;20065;-76
2023/07/13 08:54:29;;;;;;;6.55;2.10;;;17.80;99.90;;;;;;5053573;28;20385;-76
2023/07/13 08:56:56;;;;;;;5.95;1.40;;;17.90;99.90;;;;;;5053135;28;20047;-75
2023/07/13 08:59:26;;;;;;;3.92;1.73;;;17.90;99.90;;;;;;5053385;28;20112;-77
2023/07/13 09:02:07;;;;;;;3.65;1.75;;;18.00;99.90;;;;;;5052655;28;20039;-75
2023/07/13 09:04:35;;;;;;;2.97;1.92;;;18.00;99.90;;;;;;5053671;28;20462;-77
2023/07/13 09:07:24;;;;;;;3.55;1.60;;;18.10;99.90;;;;;;5053359;28;20029;-76
2023/07/13 09:10:04;;;;;;;2.00;1.33;;;18.20;99.90;;;;;;5051775;28;20021;-76
2023/07/13 09:12:41;;;;;;;4.53;1.50;;;18.20;99.90;;;;;;5052962;28;20371;-76
2023/07/13 09:15:21;;;;;;;2.75;1.50;;;18.20;99.90;;;;;;5053349;28;20040;-76
2023/07/13 09:17:51;;;;;;;3.03;1.73;;;18.20;99.90;;;;;;5051079;28;20334;-76
2023/07/13 09:20:40;;;;;;;2.42;1.48;;;18.10;99.90;;;;;;5053031;28;20127;-76
2023/07/13 09:23:17;;;;;;;3.40;1.70;;;18.10;99.90;;;;;;5052924;28;20179;-76
2023/07/13 09:25:44;;;;;;;2.60;1.70;;;18.00;99.90;;;;;;5050898;28;20033;-76
2023/07/13 09:28:25;;;;;;;2.55;1.40;;;18.00;99.90;;;;;;5052733;28;20024;-76
2023/07/13 09:31:07;;;;;;;3.63;1.70;;;17.90;99.90;;;;;;5051757;28;20147;-76
2023/07/13 09:33:34;;;;;;;3.92;1.40;;;18.00;99.90;;;;;;5052651;28;20037;-76
2023/07/13 09:36:01;;;;;;;2.03;1.30;;;17.90;99.90;;;;;;5051107;28;20397;-76
2023/07/13 09:38:29;;;;;;;2.78;1.23;;;17.90;99.90;;;;;;5052673;28;20029;-76
2023/07/13 09:41:23;;;;;;;6.45;1.90;;;17.80;99.90;;;;;;5051827;28;20085;-76
2023/07/13 09:44:11;;;;;;;4.03;1.70;;;17.90;99.90;;;;;;5050752;28;20037;-76
2023/07/13 09:46:39;;;;;;;2.17;1.65;;;18.10;99.90;;;;;;5051957;28;20029;-77
2023/07/13 09:49:05;;;;;;;4.97;1.63;;;18.30;99.90;;;;;;5052027;28;20044;-76
2023/07/13 09:51:30;;;;;;;2.80;1.90;;;18.50;99.90;;;;;;5052604;28;20323;-76
2023/07/13 09:53:57;;;;;;;3.30;1.40;;;18.70;99.90;;;;;;5052037;28;20041;-75
2023/07/13 09:56:26;;;;;;;5.07;1.60;;;18.80;99.90;;;;;;5052023;28;20068;-76
2023/07/13 09:58:53;;;;;;;2.42;1.63;;;18.90;99.90;;;;;;5051858;28;20044;-76
2023/07/13 10:01:40;;;;;;;3.25;1.42;;;19.10;99.90;;;;;;5052094;28;20029;-75
2023/07/13 10:04:12;;;;;;;2.28;1.40;;;19.20;99.90;;;;;;5051817;28;20036;-76
2023/07/13 10:06:42;;;;;;;3.33;2.00;;;19.10;99.90;;;;;;5051652;28;20025;-77
2023/07/13 10:09:09;;;;;;;3.75;1.65;;;18.90;99.90;;;;;;5051938;28;20502;-76
2023/07/13 10:11:37;;;;;;;4.90;1.50;;;19.00;99.90;;;;;;5051735;28;20112;-77
2023/07/13 10:14:12;;;;;;;3.33;1.70;;;19.20;99.90;;;;;;5051689;28;20352;-77
2023/07/13 10:16:39;;;;;;;3.00;1.48;;;19.30;99.90;;;;;;5051381;28;20029;-78
2023/07/13 10:19:15;;;;;;;1.52;1.42;;;19.50;99.90;;;;;;5051389;28;20032;-76
2023/07/13 10:22:16;;;;;;;2.67;1.40;;;19.60;99.90;;;;;;5050940;28;20114;-77
2023/07/13 10:24:42;;;;;;;4.07;1.80;;;19.70;99.90;;;;;;5037574;28;20068;-78
2023/07/13 10:27:29;;;;;;;5.32;1.30;;;19.90;99.90;;;;;;5052049;28;20215;-77
2023/07/13 10:30:13;;;;;;;3.10;1.52;;;19.90;99.90;;;;;;5050533;28;20853;-77
2023/07/13 10:32:39;;;;;;;3.28;1.23;;;20.10;99.90;;;;;;5050976;28;20094;-77
2023/07/13 10:35:12;;;;;;;5.15;1.65;;;20.20;99.90;;;;;;5052103;28;20085;-76
2023/07/13 10:37:49;;;;;;;;;;;20.30;99.90;;;;;;5051522;28;20057;-78
2023/07/13 10:40:21;;;;;;;1.85;1.30;;;20.20;99.90;;;;;;5051638;28;19905;-77
2023/07/13 10:42:49;;;;;;;1.38;1.20;;;20.40;99.90;;;;;;5051294;28;20028;-76
2023/07/13 10:45:18;;;;;;;4.00;1.33;;;20.20;99.90;;;;;;5050951;28;20496;-77
2023/07/13 10:47:46;;;;;;;2.72;1.67;;;20.30;99.90;;;;;;5050699;28;20454;-77
2023/07/13 10:50:20;;;;;;;1.45;1.30;;;20.40;99.90;;;;;;5051182;28;20121;-76
2023/07/13 10:52:53;;;;;;;2.28;1.48;;;20.60;99.90;;;;;;5050670;28;20437;-77
2023/07/13 10:55:36;;;;;;;2.92;1.40;;;20.60;99.90;;;;;;5051399;28;20049;-76
2023/07/13 10:58:18;;;;;;;;;;;20.50;99.90;;;;;;5051480;28;20029;-78
2023/07/13 11:00:48;;;;;;;3.25;1.77;;;20.30;99.90;;;;;;5050584;28;19912;-77
2023/07/13 11:03:17;;;;;;;3.22;1.40;;;20.30;99.90;;;;;;5051296;28;20140;-77
2023/07/13 11:05:43;;;;;;;2.58;1.30;;;20.10;99.90;;;;;;5050815;28;20224;-76
2023/07/13 11:08:15;;;;;;;2.15;1.80;;;20.00;99.90;;;;;;5049916;28;20029;-76
2023/07/13 11:10:54;;;;;;;3.60;2.10;;;19.90;99.90;;;;;;5050411;28;20032;-76
2023/07/13 11:13:49;;;;;;;4.78;1.67;;;19.90;99.90;;;;;;5050999;28;20033;-75
2023/07/13 11:16:18;;;;;;;3.40;1.63;;;19.90;99.90;;;;;;5041755;28;20103;-77
2023/07/13 11:19:03;;;;;;;6.55;1.60;;;19.90;99.90;;;;;;5050760;28;20103;-79
2023/07/13 11:21:32;;;;;;;4.15;1.27;;;20.10;99.90;;;;;;5051040;28;20114;-76
2023/07/13 11:24:17;;;;;;;3.45;1.60;;;20.30;99.90;;;;;;5050078;28;20174;-76
2023/07/13 11:26:46;;;;;;;3.70;1.50;;;20.50;99.90;;;;;;5050081;28;20029;-76
2023/07/13 11:29:24;;;;;;;4.22;1.52;;;20.40;99.90;;;;;;5066985;28;20372;-77
2023/07/13 11:31:53;;;;;;;3.05;1.80;;;20.40;99.90;;;;;;5067086;28;20024;-77
2023/07/13 11:34:36;;;;;;;3.67;2.20;;;20.30;99.90;;;;;;5066899;28;20107;-75
2023/07/13 11:37:02;;;;;;;3.45;1.70;;;20.20;99.90;;;;;;5066630;28;20029;-76
2023/07/13 11:39:38;;;;;;;2.78;1.95;;;20.20;99.90;;;;;;5067142;28;20048;-76
2023/07/13 11:42:08;;;;;;;4.13;1.90;;;20.10;99.90;;;;;;5066714;28;20102;-75
2023/07/13 11:44:35;;;;;;;1.52;1.40;;;20.00;99.90;;;;;;5067242;28;20100;-76
2023/07/13 11:47:09;;;;;;;4.53;1.63;;;19.90;99.90;;;;;;5065992;28;20028;-76
2023/07/13 11:49:43;;;;;;;3.80;1.50;;;20.00;99.90;;;;;;5066680;28;20044;-73
2023/07/13 11:52:25;;;;;;;3.55;1.65;;;20.00;99.90;;;;;;5066560;28;20128;-75
2023/07/13 11:54:55;;;;;;;2.23;1.63;;;19.90;99.90;;;;;;5066630;28;20033;-74
2023/07/13 11:57:33;;;;;;;3.45;1.80;;;20.00;99.90;;;;;;5067349;28;20382;-74
2023/07/13 12:00:06;;;;;;;2.17;1.40;;;20.00;99.90;;;;;;5066616;28;20090;-74
2023/07/13 12:02:38;;;;;;;3.83;1.55;;;20.20;99.90;;;;;;5067345;28;20083;-73
2023/07/13 12:05:05;;;;;;;3.45;1.73;;;20.30;99.90;;;;;;5066687;28;20029;-74
2023/07/13 12:07:33;;;;;;;4.20;1.63;;;20.40;99.90;;;;;;5065671;28;20071;-74
2023/07/13 12:10:03;;;;;;;3.92;2.00;;;20.50;99.90;;;;;;5066018;28;20029;-75
2023/07/13 12:12:30;;;;;;;4.65;2.22;;;20.50;99.90;;;;;;5067083;28;20370;-75
2023/07/13 12:14:56;;;;;;;4.30;1.98;;;20.60;99.90;;;;;;5066727;28;20081;-74
2023/07/13 12:17:24;;;;;;;2.60;1.70;;;20.70;99.90;;;;;;5067347;28;20472;-74
2023/07/13 12:19:52;;;;;;;7.82;2.20;;;20.80;99.90;;;;;;5066454;28;20138;-74
2023/07/13 12:22:20;;;;;;;3.70;2.10;;;20.80;99.90;;;;;;5066924;28;20509;-74
2023/07/13 12:24:47;;;;;;;2.17;1.70;;;20.80;99.90;;;;;;5065953;28;20108;-75
2023/07/13 12:27:25;;;;;;;3.05;1.80;;;20.70;99.90;;;;;;5066125;28;20048;-74
2023/07/13 12:30:05;;;;;;;5.22;2.22;;;20.70;99.90;;;;;;5065661;28;20151;-74
2023/07/13 12:32:31;;;;;;;2.88;1.73;;;20.70;99.90;;;;;;5064862;28;20381;-74
2023/07/13 12:35:08;;;;;;;4.47;2.10;;;20.80;99.90;;;;;;5064916;28;20028;-74
2023/07/13 12:37:35;;;;;;;3.08;2.17;;;20.80;99.90;;;;;;5066144;28;20033;-75
2023/07/13 12:40:04;;;;;;;5.82;2.10;;;20.90;99.90;;;;;;5055929;28;20315;-75
2023/07/13 12:42:33;;;;;;;2.63;1.85;;;21.00;99.90;;;;;;5052962;28;20021;-75
2023/07/13 12:45:23;;;;;;;5.35;2.00;;;21.10;99.90;;;;;;5050913;28;20029;-75
2023/07/13 12:47:53;;;;;;;2.45;2.08;;;21.20;99.90;;;;;;5052449;28;20052;-76
2023/07/13 12:50:21;;;;;;;3.22;1.90;;;21.20;99.90;;;;;;5052808;28;20021;-74
2023/07/13 12:52:53;;;;;;;4.78;2.20;;;21.10;99.90;;;;;;5052207;28;20033;-75
2023/07/13 12:55:20;;;;;;;6.53;1.90;;;21.10;99.90;;;;;;5052487;28;20058;-75